createdAt,value
2019-01-30T00:00:24.116Z,9.13
2019-01-30T00:02:58.373Z,7.83
2019-01-30T00:05:31.651Z,8.97
2019-01-30T00:08:01.989Z,7.43
2019-01-30T00:10:32.369Z,8.00
2019-01-30T00:13:02.726Z,7.87
2019-01-30T00:15:33.005Z,7.50
2019-01-30T00:18:03.481Z,8.30
2019-01-30T00:20:33.819Z,8.00
2019-01-30T00:23:05.776Z,8.77
2019-01-30T00:25:36.099Z,8.40
2019-01-30T00:28:06.426Z,7.63
2019-01-30T00:30:36.891Z,7.27
2019-01-30T00:33:07.396Z,7.43
2019-01-30T00:35:37.702Z,7.40
2019-01-30T00:38:08.013Z,7.97
2019-01-30T00:40:38.334Z,7.70
2019-01-30T00:43:08.804Z,7.53
2019-01-30T00:45:39.287Z,7.67
2019-01-30T00:48:09.776Z,7.67
2019-01-30T00:50:41.552Z,7.47
2019-01-30T00:53:11.943Z,7.87
2019-01-30T00:55:44.010Z,8.60
2019-01-30T00:58:14.335Z,9.80
2019-01-30T01:00:44.593Z,8.70
2019-01-30T01:03:15.055Z,9.43
2019-01-30T01:05:45.374Z,8.13
2019-01-30T01:08:15.792Z,9.50
2019-01-30T01:10:46.150Z,9.10
2019-01-30T01:13:16.448Z,8.33
2019-01-30T01:15:46.786Z,8.97
2019-01-30T01:18:17.102Z,8.77
2019-01-30T01:20:47.554Z,9.10
2019-01-30T01:23:19.238Z,8.87
2019-01-30T01:25:49.497Z,8.83
2019-01-30T01:28:20.951Z,9.00
2019-01-30T01:30:51.263Z,9.27
2019-01-30T01:33:21.911Z,9.90
2019-01-30T01:35:52.147Z,9.90
2019-01-30T01:38:23.134Z,9.00
2019-01-30T01:40:53.423Z,9.33
2019-01-30T01:43:25.112Z,9.23
2019-01-30T01:45:57.044Z,9.43
2019-01-30T01:48:27.388Z,8.53
2019-01-30T01:50:57.727Z,8.93
2019-01-30T01:53:28.193Z,9.33
2019-01-30T01:55:58.586Z,10.17
2019-01-30T01:58:28.898Z,10.07
2019-01-30T02:00:59.297Z,9.97
2019-01-30T02:03:29.860Z,9.73
2019-01-30T02:06:00.228Z,9.90
2019-01-30T02:08:30.544Z,8.83
2019-01-30T02:11:00.966Z,9.70
2019-01-30T02:13:31.413Z,9.50
2019-01-30T02:16:01.727Z,10.70
2019-01-30T02:18:32.093Z,10.50
2019-01-30T02:21:03.985Z,9.77
2019-01-30T02:23:34.407Z,10.73
2019-01-30T02:26:04.857Z,10.50
2019-01-30T02:28:35.293Z,9.57
2019-01-30T02:31:05.559Z,9.57
2019-01-30T02:33:35.847Z,9.97
2019-01-30T02:36:06.122Z,9.67
2019-01-30T02:38:36.488Z,11.03
2019-01-30T02:41:06.786Z,10.67
2019-01-30T02:43:37.224Z,11.10
2019-01-30T02:46:07.594Z,11.67
2019-01-30T02:48:38.052Z,10.50
2019-01-30T02:51:08.597Z,10.77
2019-01-30T02:53:39.071Z,11.27
2019-01-30T02:56:09.726Z,12.07
2019-01-30T02:58:40.151Z,11.77
2019-01-30T03:01:11.819Z,11.40
2019-01-30T03:03:42.943Z,11.80
2019-01-30T03:06:13.240Z,12.40
2019-01-30T03:08:43.707Z,12.00
2019-01-30T03:11:14.364Z,11.67
2019-01-30T03:13:44.655Z,13.00
2019-01-30T03:16:15.063Z,13.17
2019-01-30T03:18:45.425Z,12.93
2019-01-30T03:21:17.288Z,13.90
2019-01-30T03:23:47.647Z,13.17
2019-01-30T03:26:18.006Z,14.97
2019-01-30T03:28:48.350Z,14.17
2019-01-30T03:31:19.491Z,13.50
2019-01-30T03:33:50.180Z,15.17
2019-01-30T03:36:20.536Z,15.27
2019-01-30T03:38:50.862Z,15.13
2019-01-30T03:41:21.222Z,14.33
2019-01-30T03:43:51.536Z,14.87
2019-01-30T03:46:21.942Z,15.50
2019-01-30T03:48:52.269Z,14.77
2019-01-30T03:51:22.572Z,16.03
2019-01-30T03:53:52.953Z,15.37
2019-01-30T03:56:24.357Z,15.57
2019-01-30T03:58:54.786Z,15.67
2019-01-30T04:01:26.621Z,15.87
2019-01-30T04:03:57.105Z,15.70
2019-01-30T04:06:27.490Z,17.13
2019-01-30T04:08:57.920Z,15.57
2019-01-30T04:11:28.305Z,15.97
2019-01-30T04:14:00.679Z,15.73
2019-01-30T04:16:30.689Z,17.00
2019-01-30T04:19:01.000Z,16.33
2019-01-30T04:21:31.321Z,15.90
2019-01-30T04:24:01.600Z,16.50
2019-01-30T04:26:31.929Z,15.13
2019-01-30T04:29:02.220Z,15.60
2019-01-30T04:31:38.224Z,15.57
2019-01-30T04:34:04.811Z,15.87
2019-01-30T04:36:35.845Z,15.80
2019-01-30T04:39:08.276Z,16.07
2019-01-30T04:41:38.772Z,16.33
2019-01-30T04:44:09.064Z,16.53
2019-01-30T04:46:39.378Z,16.23
2019-01-30T04:49:09.645Z,16.83
2019-01-30T04:51:39.998Z,16.37
2019-01-30T04:54:10.398Z,16.77
2019-01-30T04:56:40.752Z,16.60
2019-01-30T04:59:11.056Z,17.00
2019-01-30T05:01:49.467Z,16.70
2019-01-30T05:04:13.462Z,15.87
2019-01-30T05:06:43.956Z,17.07
2019-01-30T05:09:14.424Z,16.93
2019-01-30T05:11:44.693Z,16.23
2019-01-30T05:14:15.027Z,16.27
2019-01-30T05:16:45.696Z,16.70
2019-01-30T05:19:16.100Z,17.07
2019-01-30T05:21:46.427Z,16.60
2019-01-30T05:24:16.740Z,16.93
2019-01-30T05:26:47.174Z,16.03
2019-01-30T05:29:17.606Z,16.33
2019-01-30T05:31:48.145Z,16.70
2019-01-30T05:34:18.474Z,16.97
2019-01-30T05:36:48.782Z,15.37
2019-01-30T05:39:19.110Z,17.30
2019-01-30T05:41:49.446Z,16.83
2019-01-30T05:44:19.725Z,16.03
2019-01-30T05:46:50.085Z,15.93
2019-01-30T05:49:21.819Z,16.37
2019-01-30T05:52:01.296Z,16.13
2019-01-30T05:54:31.599Z,15.40
2019-01-30T05:57:02.763Z,16.70
2019-01-30T05:59:33.069Z,16.20
2019-01-30T06:02:12.055Z,16.63
2019-01-30T06:04:38.254Z,15.47
2019-01-30T06:07:08.656Z,16.10
2019-01-30T06:09:39.087Z,15.70
2019-01-30T06:12:11.829Z,17.03
2019-01-30T06:14:42.197Z,16.43
2019-01-30T06:17:14.698Z,16.23
2019-01-30T06:19:45.227Z,16.07
2019-01-30T06:22:15.695Z,16.07
2019-01-30T06:24:46.403Z,15.70
2019-01-30T06:27:17.597Z,19.87
2019-01-30T06:29:48.011Z,17.67
2019-01-30T06:32:21.880Z,17.43
2019-01-30T06:34:50.282Z,18.60
2019-01-30T06:37:20.598Z,17.67
2019-01-30T06:39:51.034Z,17.13
2019-01-30T06:42:21.347Z,17.17
2019-01-30T06:44:51.604Z,18.67
2019-01-30T06:47:22.004Z,17.63
2019-01-30T06:49:52.519Z,18.00
2019-01-30T06:52:22.908Z,16.07
2019-01-30T06:54:53.302Z,17.60
2019-01-30T06:57:23.604Z,17.47
2019-01-30T06:59:54.001Z,16.73
2019-01-30T07:02:32.164Z,16.73
2019-01-30T07:04:56.513Z,16.73
2019-01-30T07:07:26.834Z,16.93
2019-01-30T07:09:57.619Z,18.67
2019-01-30T07:12:28.021Z,16.93
2019-01-30T07:14:58.323Z,17.60
2019-01-30T07:17:28.671Z,16.93
2019-01-30T07:19:59.093Z,17.37
2019-01-30T07:22:29.501Z,17.77
2019-01-30T07:24:59.904Z,17.73
2019-01-30T07:27:30.990Z,16.47
2019-01-30T07:30:01.276Z,17.43
2019-01-30T07:32:41.945Z,17.30
2019-01-30T07:35:07.417Z,17.43
2019-01-30T07:37:37.884Z,17.53
2019-01-30T07:40:09.260Z,17.60
2019-01-30T07:42:39.545Z,16.93
2019-01-30T07:45:12.333Z,17.83
2019-01-30T07:47:42.766Z,16.67
2019-01-30T07:50:13.190Z,18.13
2019-01-30T07:52:43.574Z,17.43
2019-01-30T07:55:15.607Z,19.27
2019-01-30T07:57:47.224Z,18.30
2019-01-30T08:00:29.199Z,17.73
2019-01-30T08:02:59.561Z,17.47
2019-01-30T08:05:29.973Z,17.57
2019-01-30T08:08:00.403Z,16.70
2019-01-30T08:10:52.694Z,17.83
2019-01-30T08:13:30.268Z,16.37
2019-01-30T08:16:02.620Z,17.10
2019-01-30T08:18:36.196Z,17.00
2019-01-30T08:21:06.773Z,16.93
2019-01-30T08:23:37.356Z,16.43
2019-01-30T08:26:07.991Z,16.40
2019-01-30T08:28:38.605Z,16.17
2019-01-30T08:31:09.250Z,16.37
2019-01-30T08:33:40.871Z,16.90
2019-01-30T08:36:12.830Z,16.63
2019-01-30T08:38:43.427Z,16.37
2019-01-30T08:41:14.688Z,17.87
2019-01-30T08:43:44.967Z,16.13
2019-01-30T08:46:15.427Z,16.23
2019-01-30T08:48:45.764Z,16.80
2019-01-30T08:51:16.147Z,15.43
2019-01-30T08:53:46.472Z,15.90
2019-01-30T08:56:16.832Z,16.90
2019-01-30T08:58:47.338Z,16.77
2019-01-30T09:01:17.767Z,16.13
2019-01-30T09:03:48.230Z,16.23
2019-01-30T09:06:18.668Z,16.53
2019-01-30T09:08:49.182Z,17.23
2019-01-30T09:11:19.599Z,15.40
2019-01-30T09:13:49.920Z,16.23
2019-01-30T09:16:20.213Z,15.53
2019-01-30T09:18:50.452Z,15.70
2019-01-30T09:21:20.778Z,15.70
2019-01-30T09:23:51.207Z,15.53
2019-01-30T09:26:21.519Z,16.17
2019-01-30T09:28:51.829Z,15.57
2019-01-30T09:31:22.091Z,15.27
2019-01-30T09:33:52.363Z,15.63
2019-01-30T09:36:22.662Z,15.60
2019-01-30T09:38:52.937Z,14.83
2019-01-30T09:41:23.258Z,15.30
2019-01-30T09:43:53.576Z,15.00
2019-01-30T09:46:23.973Z,14.17
2019-01-30T09:48:54.450Z,14.77
2019-01-30T09:51:24.737Z,14.63
2019-01-30T09:53:57.607Z,15.03
2019-01-30T09:56:27.677Z,14.57
2019-01-30T09:58:58.083Z,15.07
2019-01-30T10:01:28.508Z,14.70
2019-01-30T10:03:58.864Z,14.97
2019-01-30T10:06:29.190Z,14.47
2019-01-30T10:09:01.083Z,14.57
2019-01-30T10:11:33.201Z,13.97
2019-01-30T10:14:03.611Z,14.20
2019-01-30T10:16:34.178Z,13.33
2019-01-30T10:19:04.974Z,13.13
2019-01-30T10:21:35.401Z,14.23
2019-01-30T10:24:05.719Z,14.00
2019-01-30T10:26:36.051Z,13.97
2019-01-30T10:29:06.453Z,14.40
2019-01-30T10:31:36.734Z,13.00
2019-01-30T10:34:08.575Z,13.37
2019-01-30T10:36:38.976Z,12.50
2019-01-30T10:39:11.135Z,12.93
2019-01-30T10:41:41.551Z,12.20
2019-01-30T10:44:11.911Z,13.37
2019-01-30T10:46:42.307Z,13.43
2019-01-30T10:49:13.536Z,12.97
2019-01-30T10:51:43.866Z,12.97
2019-01-30T10:54:14.139Z,12.27
2019-01-30T10:56:44.751Z,12.83
2019-01-30T10:59:16.126Z,13.17
2019-01-30T11:01:47.528Z,13.40
2019-01-30T11:04:17.918Z,13.13
2019-01-30T11:06:48.664Z,13.57
2019-01-30T11:09:20.669Z,12.93
2019-01-30T11:11:52.811Z,13.63
2019-01-30T11:14:23.187Z,12.67
2019-01-30T11:16:53.666Z,13.73
2019-01-30T11:19:24.457Z,13.00
2019-01-30T11:21:54.861Z,12.53
2019-01-30T11:24:26.637Z,13.97
2019-01-30T11:26:57.015Z,13.40
2019-01-30T11:29:28.947Z,12.13
2019-01-30T11:31:59.941Z,12.77
2019-01-30T11:34:30.334Z,13.17
2019-01-30T11:37:00.845Z,13.47
2019-01-30T11:39:31.211Z,12.53
2019-01-30T11:42:03.264Z,13.60
2019-01-30T11:44:35.879Z,13.17
2019-01-30T11:47:06.358Z,13.47
2019-01-30T11:49:36.727Z,13.50
2019-01-30T11:52:07.365Z,13.13
2019-01-30T11:54:38.840Z,13.60
2019-01-30T11:57:09.806Z,13.97
2019-01-30T11:59:40.205Z,14.57
2019-01-30T12:02:12.025Z,14.13
2019-01-30T12:04:42.391Z,13.20
2019-01-30T12:07:12.888Z,13.53
2019-01-30T12:09:43.327Z,16.07
2019-01-30T12:12:13.781Z,14.47
2019-01-30T12:14:44.349Z,13.77
2019-01-30T12:17:14.755Z,13.50
2019-01-30T12:19:46.706Z,13.23
2019-01-30T12:22:17.037Z,13.43
2019-01-30T12:24:48.539Z,14.70
2019-01-30T12:27:19.229Z,14.80
2019-01-30T12:29:49.667Z,14.10
2019-01-30T12:32:19.963Z,14.13
2019-01-30T12:34:51.836Z,15.27
2019-01-30T12:37:22.237Z,14.63
2019-01-30T12:39:54.054Z,13.77
2019-01-30T12:42:24.446Z,14.30
2019-01-30T12:44:54.906Z,13.63
2019-01-30T12:47:25.322Z,14.60
2019-01-30T12:49:55.832Z,14.87
2019-01-30T12:52:26.285Z,15.53
2019-01-30T12:54:56.692Z,15.37
2019-01-30T12:57:27.079Z,15.20
2019-01-30T12:59:57.560Z,16.47
2019-01-30T13:02:28.017Z,16.90
2019-01-30T13:04:58.468Z,16.23
2019-01-30T13:07:28.825Z,16.90
2019-01-30T13:09:59.188Z,15.57
2019-01-30T13:12:29.640Z,16.53
2019-01-30T13:15:00.011Z,16.47
2019-01-30T13:17:30.919Z,17.07
2019-01-30T13:20:01.253Z,17.23
2019-01-30T13:22:31.941Z,17.43
2019-01-30T13:25:02.279Z,17.27
2019-01-30T13:27:32.633Z,16.70
2019-01-30T13:30:02.941Z,17.77
2019-01-30T13:32:33.326Z,16.77
2019-01-30T13:35:03.865Z,17.50
2019-01-30T13:37:34.219Z,18.17
2019-01-30T13:40:11.892Z,18.20
2019-01-30T13:42:43.918Z,18.37
2019-01-30T13:45:14.550Z,16.60
2019-01-30T13:47:46.016Z,17.17
2019-01-30T13:50:20.340Z,16.80
2019-01-30T13:52:52.688Z,18.00
2019-01-30T13:55:23.899Z,18.70
2019-01-30T13:57:54.217Z,19.37
2019-01-30T14:00:29.792Z,17.57
2019-01-30T14:03:00.347Z,19.60
2019-01-30T14:05:30.966Z,18.13
2019-01-30T14:08:02.040Z,17.67
2019-01-30T14:10:32.713Z,17.67
2019-01-30T14:13:03.108Z,18.60
2019-01-30T14:15:34.389Z,17.30
2019-01-30T14:18:05.622Z,16.97
2019-01-30T14:20:36.053Z,17.13
2019-01-30T14:23:06.669Z,18.77
2019-01-30T14:25:37.451Z,18.37
2019-01-30T14:28:07.821Z,17.73
2019-01-30T14:30:46.391Z,17.67
2019-01-30T14:33:22.944Z,17.77
2019-01-30T14:35:53.599Z,18.13
2019-01-30T14:38:26.590Z,18.67
2019-01-30T14:40:57.987Z,18.23
2019-01-30T14:43:30.201Z,17.97
2019-01-30T14:46:00.768Z,18.40
2019-01-30T14:48:31.275Z,17.13
2019-01-30T14:51:01.804Z,18.37
2019-01-30T14:53:39.065Z,18.10
2019-01-30T14:56:16.249Z,18.27
2019-01-30T14:58:46.732Z,19.87
2019-01-30T15:01:17.132Z,17.70
2019-01-30T15:03:48.097Z,17.77
2019-01-30T15:06:25.656Z,18.93
2019-01-30T15:09:03.253Z,17.73
2019-01-30T15:11:35.745Z,18.57
2019-01-30T15:14:08.089Z,19.17
2019-01-30T15:16:45.186Z,18.80
2019-01-30T15:19:22.081Z,21.47
2019-01-30T15:22:00.163Z,22.27
2019-01-30T15:24:32.035Z,19.17
2019-01-30T15:27:10.272Z,20.57
2019-01-30T15:29:40.938Z,19.80
2019-01-30T15:32:13.859Z,19.57
2019-01-30T15:34:44.428Z,20.20
2019-01-30T15:37:17.750Z,20.03
2019-01-30T15:39:48.337Z,20.20
2019-01-30T15:42:23.824Z,19.57
2019-01-30T15:44:54.554Z,19.30
2019-01-30T15:47:27.368Z,20.43
2019-01-30T15:50:11.704Z,20.70
2019-01-30T15:55:58.923Z,20.07
2019-01-30T15:59:09.127Z,18.63
2019-01-30T16:01:42.286Z,20.17
2019-01-30T16:04:13.817Z,19.90
2019-01-30T16:06:44.324Z,19.10
2019-01-30T16:09:14.647Z,19.87
2019-01-30T16:11:45.116Z,21.33
2019-01-30T16:14:19.362Z,19.67
2019-01-30T16:16:49.662Z,21.03
2019-01-30T16:19:20.351Z,20.43
2019-01-30T16:21:50.735Z,20.03
2019-01-30T16:24:21.091Z,18.30
2019-01-30T16:26:51.807Z,18.63
2019-01-30T16:29:23.039Z,19.27
2019-01-30T16:31:53.317Z,16.50
2019-01-30T16:34:23.607Z,12.27
2019-01-30T16:36:53.907Z,13.80
2019-01-30T16:39:24.423Z,12.10
2019-01-30T16:41:54.957Z,11.67
2019-01-30T16:44:25.439Z,14.73
2019-01-30T16:46:55.788Z,18.30
2019-01-30T16:49:27.142Z,18.30
2019-01-30T16:51:57.663Z,16.83
2019-01-30T16:54:28.085Z,17.80
2019-01-30T16:57:00.194Z,17.13
2019-01-30T16:59:30.678Z,17.97
2019-01-30T17:02:04.555Z,19.10
2019-01-30T17:04:39.392Z,19.33
2019-01-30T17:07:11.819Z,19.50
2019-01-30T17:09:42.279Z,17.90
2019-01-30T17:12:25.021Z,19.03
2019-01-30T17:14:57.807Z,20.97
2019-01-30T17:17:28.681Z,21.20
2019-01-30T17:19:59.296Z,24.07
2019-01-30T17:22:36.036Z,24.53
2019-01-30T17:25:15.073Z,25.50
2019-01-30T17:27:48.676Z,25.73
2019-01-30T17:30:38.219Z,26.00
2019-01-30T17:33:10.208Z,27.87
2019-01-30T17:35:49.386Z,24.53
2019-01-30T17:38:19.933Z,22.80
2019-01-30T17:40:52.529Z,18.50
2019-01-30T17:43:22.935Z,15.33
2019-01-30T17:45:58.602Z,15.87
2019-01-30T17:48:33.766Z,16.03
2019-01-30T17:51:15.484Z,19.70
2019-01-30T17:53:45.957Z,20.67
2019-01-30T17:56:16.349Z,20.90
2019-01-30T17:58:48.309Z,20.70
2019-01-30T18:01:20.724Z,22.23
2019-01-30T18:03:51.152Z,24.40
2019-01-30T18:06:29.461Z,25.03
2019-01-30T18:08:55.227Z,23.83
2019-01-30T18:11:25.589Z,26.10
2019-01-30T18:13:56.119Z,25.37
2019-01-30T18:16:29.084Z,41.93
2019-01-30T18:18:59.498Z,37.80
2019-01-30T18:21:32.046Z,31.27
2019-01-30T18:24:04.205Z,34.07
2019-01-30T18:26:38.185Z,30.43
2019-01-30T18:29:08.645Z,30.67
2019-01-30T18:31:42.318Z,30.57
2019-01-30T18:34:12.662Z,30.47
2019-01-30T18:36:42.993Z,30.50
2019-01-30T18:39:13.418Z,30.13
2019-01-30T18:41:43.849Z,32.37
2019-01-30T18:44:14.244Z,31.70
2019-01-30T18:46:44.630Z,29.10
2019-01-30T18:49:15.165Z,29.60
2019-01-30T18:51:45.657Z,29.83
2019-01-30T18:54:16.090Z,27.83
2019-01-30T18:56:46.467Z,28.27
2019-01-30T18:59:17.048Z,28.87
2019-01-30T19:01:47.838Z,30.30
2019-01-30T19:04:18.315Z,29.77
2019-01-30T19:06:52.353Z,29.90
2019-01-30T19:09:20.967Z,30.67
2019-01-30T19:11:54.134Z,30.63
2019-01-30T19:14:24.800Z,30.20
2019-01-30T19:16:55.252Z,30.80
2019-01-30T19:19:27.271Z,31.33
2019-01-30T19:21:57.685Z,30.87
2019-01-30T19:24:28.576Z,33.13
2019-01-30T19:26:59.070Z,33.43
2019-01-30T19:29:31.123Z,32.40
2019-01-30T19:32:01.610Z,30.00
2019-01-30T19:34:32.119Z,31.50
2019-01-30T19:37:04.004Z,33.40
2019-01-30T19:39:34.648Z,32.60
2019-01-30T19:42:05.156Z,31.43
2019-01-30T19:44:35.605Z,30.57
2019-01-30T19:47:06.068Z,33.70
2019-01-30T19:49:36.468Z,30.53
2019-01-30T19:52:06.842Z,28.50
2019-01-30T19:54:37.182Z,28.00
2019-01-30T19:57:07.645Z,27.27
2019-01-30T19:59:39.160Z,28.87
2019-01-30T20:02:09.797Z,27.30
2019-01-30T20:04:41.898Z,30.20
2019-01-30T20:07:14.758Z,33.23
2019-01-30T20:09:45.067Z,29.70
2019-01-30T20:12:18.452Z,30.37
2019-01-30T20:14:48.858Z,31.00
2019-01-30T20:17:19.448Z,30.67
2019-01-30T20:19:49.849Z,36.77
2019-01-30T20:22:20.180Z,32.70
2019-01-30T20:24:50.802Z,30.07
2019-01-30T20:27:21.330Z,28.20
2019-01-30T20:29:51.767Z,28.00
2019-01-30T20:32:24.277Z,28.70
2019-01-30T20:34:54.680Z,27.70
2019-01-30T20:37:26.361Z,27.50
2019-01-30T20:39:56.965Z,28.70
2019-01-30T20:42:27.346Z,28.53
2019-01-30T20:44:59.081Z,28.17
2019-01-30T20:47:32.291Z,30.17
2019-01-30T20:50:03.572Z,28.20
2019-01-30T20:52:34.081Z,28.57
2019-01-30T20:55:05.118Z,29.70
2019-01-30T20:57:35.459Z,29.83
2019-01-30T21:00:19.408Z,27.20
2019-01-30T21:02:49.870Z,27.40
2019-01-30T21:05:21.830Z,26.47
2019-01-30T21:07:52.370Z,26.70
2019-01-30T21:10:30.847Z,26.60
2019-01-30T21:13:01.368Z,25.23
2019-01-30T21:15:31.785Z,27.13
2019-01-30T21:18:02.138Z,42.47
2019-01-30T21:20:32.630Z,31.03
2019-01-30T21:23:02.918Z,28.93
2019-01-30T21:25:33.387Z,33.83
2019-01-30T21:28:03.802Z,28.90
2019-01-30T21:30:35.948Z,25.50
2019-01-30T21:33:06.316Z,23.50
2019-01-30T21:35:36.676Z,25.83
2019-01-30T21:38:07.477Z,32.07
2019-01-30T21:40:37.927Z,28.40
2019-01-30T21:43:08.304Z,25.00
2019-01-30T21:45:40.192Z,22.10
2019-01-30T21:48:10.411Z,21.80
2019-01-30T21:50:40.841Z,22.73
2019-01-30T21:53:11.210Z,24.10
2019-01-30T21:55:41.517Z,24.17
2019-01-30T21:58:11.825Z,24.27
2019-01-30T22:00:42.396Z,27.03
2019-01-30T22:03:12.822Z,26.90
2019-01-30T22:05:43.409Z,26.73
2019-01-30T22:08:15.341Z,25.43
2019-01-30T22:10:45.695Z,25.53
2019-01-30T22:13:16.257Z,25.30
2019-01-30T22:15:46.755Z,25.17
2019-01-30T22:18:17.279Z,26.83
2019-01-30T22:20:47.707Z,25.13
2019-01-30T22:23:25.882Z,25.97
2019-01-30T22:25:56.428Z,25.07
2019-01-30T22:28:26.896Z,24.23
2019-01-30T22:30:57.415Z,25.53
2019-01-30T22:33:27.706Z,26.80
2019-01-30T22:35:58.161Z,25.43
2019-01-30T22:38:29.428Z,25.20
2019-01-30T22:40:59.857Z,25.90
2019-01-30T22:43:30.344Z,25.53
2019-01-30T22:46:00.708Z,25.70
2019-01-30T22:48:31.112Z,24.30
2019-01-30T22:51:01.405Z,25.23
2019-01-30T22:53:31.837Z,24.13
2019-01-30T22:56:02.885Z,25.67
2019-01-30T22:58:33.191Z,25.30
2019-01-30T23:01:19.898Z,24.23
2019-01-30T23:04:21.856Z,24.70
2019-01-30T23:07:05.574Z,24.40
2019-01-30T23:10:26.019Z,24.40
2019-01-30T23:13:07.575Z,22.73
2019-01-30T23:16:03.391Z,23.20
2019-01-30T23:19:08.423Z,21.40
2019-01-30T23:21:48.453Z,21.40
2019-01-30T23:24:56.123Z,21.93
2019-01-30T23:27:38.837Z,20.80
2019-01-30T23:30:29.025Z,18.93
2019-01-30T23:33:40.923Z,18.07
2019-01-30T23:36:43.340Z,17.30
2019-01-30T23:39:57.891Z,17.73
2019-01-30T23:43:14.775Z,15.20
2019-01-30T23:46:29.717Z,15.37
2019-01-30T23:49:53.703Z,14.80
2019-01-30T23:53:01.713Z,12.63
2019-01-30T23:56:12.873Z,13.23
2019-01-30T23:59:09.597Z,13.40
